createdAt,value
2022-07-30T00:01:41.990Z,8.25
2022-07-30T00:04:14.821Z,7.13
2022-07-30T00:06:45.107Z,7.50
2022-07-30T00:09:15.461Z,8.02
2022-07-30T00:11:45.778Z,7.72
2022-07-30T00:14:16.014Z,6.45
2022-07-30T00:16:46.275Z,6.80
2022-07-30T00:19:19.122Z,6.32
2022-07-30T00:21:50.901Z,6.10
2022-07-30T00:24:21.099Z,6.22
2022-07-30T00:26:51.552Z,6.65
2022-07-30T00:29:21.857Z,7.78
2022-07-30T00:31:52.056Z,7.80
2022-07-30T00:34:24.919Z,8.80
2022-07-30T00:36:55.256Z,10.10
2022-07-30T00:39:25.538Z,8.15
2022-07-30T00:42:03.914Z,6.75
2022-07-30T00:44:34.218Z,10.63
2022-07-30T00:47:04.877Z,6.53
2022-07-30T00:49:42.595Z,7.00
2022-07-30T00:52:14.560Z,6.15
2022-07-30T00:54:44.897Z,7.20
2022-07-30T00:57:15.128Z,6.22
2022-07-30T00:59:45.404Z,6.75
2022-07-30T01:02:15.625Z,6.47
2022-07-30T01:04:48.673Z,5.45
2022-07-30T01:07:19.208Z,6.50
2022-07-30T01:09:49.482Z,5.05
2022-07-30T01:12:26.402Z,7.25
2022-07-30T01:14:59.100Z,7.55
2022-07-30T01:17:29.628Z,6.13
2022-07-30T01:20:09.047Z,5.95
2022-07-30T01:22:53.253Z,7.22
2022-07-30T01:25:48.481Z,7.43
2022-07-30T01:28:26.774Z,9.88
2022-07-30T01:30:59.573Z,6.30
2022-07-30T01:33:31.399Z,7.20
2022-07-30T01:36:04.474Z,7.20
2022-07-30T01:38:35.883Z,6.10
2022-07-30T01:41:07.661Z,8.05
2022-07-30T01:43:43.074Z,4.90
2022-07-30T01:46:15.155Z,6.32
2022-07-30T01:48:48.797Z,6.13
2022-07-30T01:51:21.307Z,7.40
2022-07-30T01:53:56.479Z,6.32
2022-07-30T01:56:29.027Z,5.82
2022-07-30T01:59:10.060Z,6.30
2022-07-30T02:01:40.353Z,6.55
2022-07-30T02:04:10.622Z,5.85
2022-07-30T02:06:45.551Z,7.15
2022-07-30T02:09:26.210Z,5.60
2022-07-30T02:12:10.979Z,6.00
2022-07-30T02:14:53.286Z,7.90
2022-07-30T02:17:30.426Z,6.20
2022-07-30T02:20:13.643Z,5.75
2022-07-30T02:22:48.966Z,5.18
2022-07-30T02:25:24.183Z,8.27
2022-07-30T02:28:01.665Z,6.35
2022-07-30T02:30:39.689Z,8.63
2022-07-30T02:33:12.955Z,6.93
2022-07-30T02:35:44.324Z,7.18
2022-07-30T02:38:17.398Z,8.25
2022-07-30T02:40:49.014Z,6.55
2022-07-30T02:43:21.692Z,8.60
2022-07-30T02:45:55.648Z,7.18
2022-07-30T02:48:35.517Z,7.10
2022-07-30T02:51:08.311Z,7.75
2022-07-30T02:53:40.839Z,8.07
2022-07-30T02:56:12.906Z,7.20
2022-07-30T02:58:44.413Z,6.55
2022-07-30T03:01:21.205Z,8.35
2022-07-30T03:03:52.911Z,7.00
2022-07-30T03:06:26.490Z,8.13
2022-07-30T03:08:57.775Z,8.43
2022-07-30T03:11:30.028Z,8.20
2022-07-30T03:14:00.794Z,9.50
2022-07-30T03:19:06.754Z,10.52
2022-07-30T03:21:40.370Z,9.15
2022-07-30T03:24:15.222Z,8.63
2022-07-30T03:26:46.875Z,9.05
2022-07-30T03:29:21.827Z,11.38
2022-07-30T03:31:55.985Z,8.95
2022-07-30T03:34:26.754Z,9.15
2022-07-30T03:36:59.809Z,8.93
2022-07-30T03:39:31.393Z,10.27
2022-07-30T03:42:01.948Z,9.73
2022-07-30T03:44:34.272Z,12.43
2022-07-30T03:47:11.737Z,10.85
2022-07-30T03:49:47.855Z,9.40
2022-07-30T03:52:18.684Z,11.02
2022-07-30T03:54:50.740Z,10.65
2022-07-30T03:57:50.412Z,8.93
2022-07-30T04:00:23.554Z,10.75
2022-07-30T04:02:59.284Z,10.70
2022-07-30T04:05:37.608Z,10.15
2022-07-30T04:08:11.659Z,9.73
2022-07-30T04:10:42.666Z,11.02
2022-07-30T04:13:47.222Z,11.32
2022-07-30T04:16:38.993Z,11.15
2022-07-30T04:19:21.740Z,11.68
2022-07-30T04:21:54.336Z,14.30
2022-07-30T04:24:26.866Z,10.70
2022-07-30T04:26:58.157Z,12.45
2022-07-30T04:29:28.725Z,9.07
2022-07-30T04:32:00.134Z,10.45
2022-07-30T04:35:05.588Z,10.95
2022-07-30T04:37:56.070Z,9.52
2022-07-30T04:40:26.472Z,10.73
2022-07-30T04:42:56.702Z,9.73
2022-07-30T04:45:27.878Z,10.60
2022-07-30T04:48:01.323Z,13.27
2022-07-30T04:50:37.939Z,11.88
2022-07-30T04:53:11.481Z,12.27
2022-07-30T04:55:48.394Z,13.82
2022-07-30T04:58:23.800Z,13.10
2022-07-30T05:00:56.003Z,13.80
2022-07-30T05:03:32.491Z,11.45
2022-07-30T05:06:06.304Z,11.50
2022-07-30T05:08:41.464Z,13.18
2022-07-30T05:11:16.028Z,11.45
2022-07-30T05:13:48.558Z,11.13
2022-07-30T05:16:22.847Z,10.27
2022-07-30T05:18:54.152Z,12.80
2022-07-30T05:21:28.649Z,11.05
2022-07-30T05:23:59.496Z,11.80
2022-07-30T05:26:38.245Z,12.40
2022-07-30T05:29:09.150Z,13.85
2022-07-30T05:31:52.813Z,12.07
2022-07-30T05:36:58.322Z,13.73
2022-07-30T05:39:29.484Z,12.80
2022-07-30T05:42:18.659Z,15.05
2022-07-30T05:44:55.084Z,14.10
2022-07-30T05:47:25.285Z,11.85
2022-07-30T05:49:55.488Z,12.82
2022-07-30T05:52:28.949Z,12.52
2022-07-30T05:55:05.931Z,13.48
2022-07-30T05:57:56.342Z,14.43
2022-07-30T06:00:26.690Z,12.57
2022-07-30T06:02:58.336Z,11.57
2022-07-30T06:05:47.037Z,13.18
2022-07-30T06:08:19.845Z,14.65
2022-07-30T06:10:50.401Z,14.48
2022-07-30T06:13:20.619Z,12.32
2022-07-30T06:15:50.927Z,10.65
2022-07-30T06:18:23.180Z,12.07
2022-07-30T06:20:55.882Z,13.57
2022-07-30T06:26:19.009Z,12.50
2022-07-30T06:28:49.215Z,14.32
2022-07-30T06:31:25.982Z,14.18
2022-07-30T06:33:56.482Z,12.90
2022-07-30T06:36:28.498Z,14.02
2022-07-30T06:39:06.924Z,16.10
2022-07-30T06:41:57.704Z,15.60
2022-07-30T06:44:32.671Z,14.95
2022-07-30T06:47:29.240Z,15.40
2022-07-30T06:50:01.152Z,17.65
2022-07-30T06:52:32.895Z,13.57
2022-07-30T06:55:07.381Z,14.48
2022-07-30T06:57:44.670Z,16.08
2022-07-30T07:00:34.846Z,14.38
2022-07-30T07:03:11.969Z,13.57
2022-07-30T07:05:42.587Z,15.65
2022-07-30T07:08:12.817Z,14.02
2022-07-30T07:10:51.122Z,13.50
2022-07-30T07:13:47.379Z,16.35
2022-07-30T07:16:26.848Z,14.05
2022-07-30T07:18:59.008Z,15.13
2022-07-30T07:21:29.304Z,15.70
2022-07-30T07:24:00.480Z,16.70
2022-07-30T07:26:51.642Z,16.55
2022-07-30T07:29:22.586Z,13.38
2022-07-30T07:32:07.210Z,15.38
2022-07-30T07:34:39.752Z,15.18
2022-07-30T07:37:11.174Z,16.08
2022-07-30T07:39:42.427Z,16.50
2022-07-30T07:42:15.576Z,19.17
2022-07-30T07:44:47.379Z,16.38
2022-07-30T07:47:17.921Z,18.67
2022-07-30T07:49:59.375Z,19.45
2022-07-30T07:52:29.644Z,16.92
2022-07-30T07:54:59.823Z,16.73
2022-07-30T07:57:41.580Z,16.60
2022-07-30T08:00:17.947Z,17.83
2022-07-30T08:02:52.056Z,18.77
2022-07-30T08:05:22.348Z,15.07
2022-07-30T08:08:06.516Z,17.13
2022-07-30T08:10:55.447Z,17.27
2022-07-30T08:13:52.560Z,16.05
2022-07-30T08:16:41.879Z,16.65
2022-07-30T08:19:36.920Z,17.38
2022-07-30T08:22:15.605Z,16.27
2022-07-30T08:27:16.087Z,17.90
2022-07-30T08:29:49.204Z,17.55
2022-07-30T08:32:19.434Z,18.42
2022-07-30T08:34:49.950Z,17.88
2022-07-30T08:37:20.186Z,17.67
2022-07-30T08:39:50.454Z,14.75
2022-07-30T08:42:20.760Z,15.73
2022-07-30T08:44:56.643Z,14.82
2022-07-30T08:47:33.305Z,14.60
2022-07-30T08:50:16.988Z,14.55
2022-07-30T08:53:16.853Z,13.82
2022-07-30T08:55:48.368Z,11.35
2022-07-30T09:01:03.657Z,11.88
2022-07-30T09:03:34.186Z,14.30
2022-07-30T09:06:08.283Z,12.30
2022-07-30T09:08:38.492Z,11.93
2022-07-30T09:11:08.968Z,9.35
2022-07-30T09:13:42.465Z,13.50
2022-07-30T09:16:24.694Z,12.07
2022-07-30T09:18:57.887Z,10.43
2022-07-30T09:21:31.623Z,8.70
2022-07-30T09:24:15.982Z,10.73
2022-07-30T09:27:07.781Z,11.20
2022-07-30T09:30:01.421Z,8.38
2022-07-30T09:32:55.996Z,8.63
2022-07-30T09:35:28.743Z,8.05
2022-07-30T09:38:14.896Z,7.55
2022-07-30T09:41:39.422Z,7.85
2022-07-30T09:44:27.850Z,7.65
2022-07-30T09:47:02.962Z,8.05
2022-07-30T09:49:43.159Z,10.30
2022-07-30T09:52:31.229Z,7.25
2022-07-30T09:55:03.574Z,7.63
2022-07-30T09:57:34.394Z,8.32
2022-07-30T10:00:24.237Z,7.10
2022-07-30T10:03:21.592Z,8.90
2022-07-30T10:06:38.072Z,5.68
2022-07-30T10:09:45.250Z,8.68
2022-07-30T10:12:18.751Z,6.47
2022-07-30T10:14:56.987Z,7.93
2022-07-30T10:17:27.522Z,7.13
2022-07-30T10:20:23.957Z,8.10
2022-07-30T10:23:18.413Z,8.60
2022-07-30T10:26:11.604Z,8.07
2022-07-30T10:29:00.703Z,6.93
2022-07-30T10:31:48.071Z,11.40
2022-07-30T10:34:23.769Z,7.55
2022-07-30T10:37:04.781Z,8.68
2022-07-30T10:39:47.132Z,8.55
2022-07-30T10:45:23.049Z,9.15
2022-07-30T10:47:54.858Z,8.05
2022-07-30T10:50:29.264Z,8.02
2022-07-30T10:53:01.636Z,7.53
2022-07-30T10:55:39.343Z,8.73
2022-07-30T10:58:12.366Z,7.45
2022-07-30T11:01:02.604Z,9.73
2022-07-30T11:03:41.512Z,8.50
2022-07-30T11:06:30.924Z,9.15
2022-07-30T11:09:01.507Z,9.55
2022-07-30T11:12:05.010Z,8.70
2022-07-30T11:15:06.775Z,8.27
2022-07-30T11:18:12.868Z,10.35
2022-07-30T11:20:48.670Z,8.77
2022-07-30T11:23:42.999Z,7.80
2022-07-30T11:26:13.927Z,8.43
2022-07-30T11:28:49.795Z,8.30
2022-07-30T11:31:54.860Z,8.05
2022-07-30T11:34:31.638Z,7.10
2022-07-30T11:37:18.458Z,7.72
2022-07-30T11:40:15.159Z,8.85
2022-07-30T11:42:45.469Z,7.75
2022-07-30T11:45:32.410Z,6.43
2022-07-30T11:48:03.224Z,8.38
2022-07-30T11:50:36.449Z,6.22
2022-07-30T11:53:09.569Z,7.53
2022-07-30T11:55:42.625Z,8.85
2022-07-30T11:58:26.812Z,8.60
2022-07-30T12:01:02.130Z,7.18
2022-07-30T12:03:34.557Z,5.75
2022-07-30T12:06:10.635Z,6.47
2022-07-30T12:08:45.141Z,5.75
2022-07-30T12:11:15.703Z,5.82
2022-07-30T12:16:22.426Z,7.07
2022-07-30T12:18:52.632Z,6.00
2022-07-30T12:21:23.068Z,5.95
2022-07-30T12:24:02.347Z,6.75
2022-07-30T12:26:34.922Z,7.68
2022-07-30T12:29:10.236Z,5.80
2022-07-30T12:31:45.317Z,4.88
2022-07-30T12:34:23.821Z,47.08
2022-07-30T12:36:54.412Z,8.20
2022-07-30T12:41:58.573Z,5.72
2022-07-30T12:44:40.474Z,6.40
2022-07-30T12:47:24.140Z,5.32
2022-07-30T12:49:55.268Z,6.40
2022-07-30T12:52:31.605Z,6.55
2022-07-30T12:55:09.709Z,5.57
2022-07-30T12:58:07.055Z,5.85
2022-07-30T13:00:52.401Z,6.43
2022-07-30T13:03:27.667Z,6.78
2022-07-30T13:06:00.549Z,6.97
2022-07-30T13:08:58.857Z,8.23
2022-07-30T13:11:42.328Z,6.15
2022-07-30T13:14:23.648Z,7.50
2022-07-30T13:16:58.944Z,6.32
2022-07-30T13:19:31.807Z,6.97
2022-07-30T13:22:01.983Z,7.25
2022-07-30T13:24:34.185Z,7.13
2022-07-30T13:27:04.749Z,5.90
2022-07-30T13:29:35.204Z,11.18
2022-07-30T13:32:05.311Z,7.88
2022-07-30T13:34:38.262Z,9.30
2022-07-30T13:37:08.764Z,6.78
2022-07-30T13:39:39.037Z,8.63
2022-07-30T13:42:09.647Z,8.43
2022-07-30T13:44:39.866Z,8.57
2022-07-30T13:47:10.709Z,9.32
2022-07-30T13:49:49.408Z,9.40
2022-07-30T13:52:19.663Z,9.10
2022-07-30T13:54:51.450Z,9.25
2022-07-30T13:57:21.658Z,8.40
2022-07-30T13:59:52.704Z,6.93
2022-07-30T14:02:22.920Z,8.48
2022-07-30T14:04:55.693Z,8.60
2022-07-30T14:07:26.092Z,9.55
2022-07-30T14:09:56.265Z,8.27
2022-07-30T14:12:26.423Z,9.45
2022-07-30T14:14:56.821Z,8.73
2022-07-30T14:17:27.000Z,7.95
2022-07-30T14:19:59.842Z,8.57
2022-07-30T14:22:30.063Z,9.85
2022-07-30T14:25:00.341Z,12.32
2022-07-30T14:27:30.552Z,9.30
2022-07-30T14:30:00.892Z,10.90
2022-07-30T14:32:32.744Z,8.65
2022-07-30T14:35:05.639Z,10.13
2022-07-30T14:37:36.019Z,9.52
2022-07-30T14:40:06.911Z,9.88
2022-07-30T14:42:37.119Z,9.10
2022-07-30T14:45:08.287Z,8.30
2022-07-30T14:47:39.349Z,9.73
2022-07-30T14:50:12.710Z,8.65
2022-07-30T14:52:43.910Z,10.02
2022-07-30T14:55:14.096Z,7.35
2022-07-30T14:57:44.941Z,8.48
2022-07-30T15:00:16.404Z,9.82
2022-07-30T15:02:46.564Z,8.90
2022-07-30T15:05:19.466Z,7.18
2022-07-30T15:07:49.613Z,6.57
2022-07-30T15:10:19.880Z,10.43
2022-07-30T15:12:50.008Z,9.68
2022-07-30T15:15:20.197Z,16.77
2022-07-30T15:17:53.444Z,8.63
2022-07-30T15:20:26.222Z,9.32
2022-07-30T15:22:56.392Z,7.60
2022-07-30T15:25:26.871Z,7.00
2022-07-30T15:30:27.074Z,6.73
2022-07-30T15:32:57.458Z,6.60
2022-07-30T15:38:02.406Z,7.80
2022-07-30T15:43:08.609Z,8.20
2022-07-30T15:45:52.442Z,5.78
2022-07-30T15:48:27.840Z,8.95
2022-07-30T15:51:05.086Z,9.18
2022-07-30T15:53:36.446Z,6.55
2022-07-30T15:56:07.102Z,6.43
2022-07-30T15:58:43.397Z,8.27
2022-07-30T16:01:14.120Z,6.63
2022-07-30T16:03:44.403Z,6.45
2022-07-30T16:06:17.302Z,7.75
2022-07-30T16:08:47.538Z,4.97
2022-07-30T16:11:17.729Z,7.35
2022-07-30T16:13:48.557Z,6.68
2022-07-30T16:16:19.165Z,5.72
2022-07-30T16:21:21.952Z,6.27
2022-07-30T16:23:52.731Z,6.80
2022-07-30T16:26:23.114Z,6.55
2022-07-30T16:28:53.843Z,6.20
2022-07-30T16:31:24.180Z,6.38
2022-07-30T16:33:54.382Z,7.40
2022-07-30T16:36:27.144Z,9.15
2022-07-30T16:38:57.253Z,7.38
2022-07-30T16:41:27.625Z,6.32
2022-07-30T16:43:57.814Z,5.95
2022-07-30T16:46:28.062Z,6.10
2022-07-30T16:48:58.381Z,8.80
2022-07-30T16:51:31.265Z,5.25
2022-07-30T16:54:01.458Z,9.23
2022-07-30T16:56:31.716Z,6.05
2022-07-30T16:59:02.045Z,5.55
2022-07-30T17:01:32.345Z,7.00
2022-07-30T17:04:02.641Z,5.03
2022-07-30T17:06:35.689Z,7.13
2022-07-30T17:09:06.020Z,9.68
2022-07-30T17:11:47.808Z,9.93
2022-07-30T17:14:22.695Z,6.82
2022-07-30T17:16:53.547Z,7.72
2022-07-30T17:19:23.761Z,7.25
2022-07-30T17:21:56.572Z,7.30
2022-07-30T17:24:26.807Z,6.53
2022-07-30T17:26:57.002Z,7.18
2022-07-30T17:29:27.116Z,8.05
2022-07-30T17:31:57.290Z,9.05
2022-07-30T17:34:27.504Z,7.30
2022-07-30T17:37:00.312Z,7.18
2022-07-30T17:40:19.862Z,6.78
2022-07-30T17:44:51.550Z,7.80
2022-07-30T17:47:21.816Z,7.20
2022-07-30T17:49:52.014Z,6.93
2022-07-30T17:52:26.502Z,8.95
2022-07-30T17:54:56.963Z,7.80
2022-07-30T17:57:27.512Z,6.55
2022-07-30T17:59:57.948Z,6.05
2022-07-30T18:02:29.027Z,7.25
2022-07-30T18:04:59.562Z,18.58
2022-07-30T18:07:32.848Z,10.57
2022-07-30T18:10:03.400Z,7.15
2022-07-30T18:12:34.399Z,8.73
2022-07-30T18:15:06.499Z,7.53
2022-07-30T18:17:36.752Z,7.38
2022-07-30T18:20:08.874Z,11.30
2022-07-30T18:22:41.968Z,7.95
2022-07-30T18:25:18.607Z,9.18
2022-07-30T18:27:51.418Z,6.68
2022-07-30T18:30:22.461Z,8.23
2022-07-30T18:32:53.308Z,7.95
2022-07-30T18:35:23.542Z,7.60
2022-07-30T18:37:56.370Z,9.23
2022-07-30T18:40:27.046Z,9.40
2022-07-30T18:45:28.662Z,8.98
2022-07-30T18:47:59.927Z,9.20
2022-07-30T18:50:30.809Z,7.10
2022-07-30T18:53:15.311Z,9.05
2022-07-30T18:55:46.437Z,9.77
2022-07-30T18:58:17.059Z,7.10
2022-07-30T19:00:47.410Z,6.80
2022-07-30T19:03:22.878Z,7.88
2022-07-30T19:05:53.404Z,7.68
2022-07-30T19:08:26.218Z,8.88
2022-07-30T19:10:56.488Z,8.05
2022-07-30T19:13:26.717Z,9.40
2022-07-30T19:15:56.918Z,9.38
2022-07-30T19:18:27.183Z,9.02
2022-07-30T19:20:57.324Z,9.85
2022-07-30T19:23:30.135Z,7.95
2022-07-30T19:26:00.643Z,8.70
2022-07-30T19:28:30.827Z,9.82
2022-07-30T19:31:00.945Z,11.40
2022-07-30T19:33:31.146Z,8.77
2022-07-30T19:36:02.969Z,10.13
2022-07-30T19:38:37.380Z,9.82
2022-07-30T19:41:07.615Z,14.60
2022-07-30T19:43:37.996Z,9.70
2022-07-30T19:46:09.498Z,12.65
2022-07-30T19:48:41.355Z,9.32
2022-07-30T19:51:20.214Z,9.95
2022-07-30T19:53:54.012Z,9.82
2022-07-30T19:56:24.140Z,10.50
2022-07-30T19:58:54.357Z,12.60
2022-07-30T20:01:24.595Z,10.40
2022-07-30T20:04:11.873Z,9.73
2022-07-30T20:06:46.115Z,11.98
2022-07-30T20:09:19.242Z,10.48
2022-07-30T20:11:49.440Z,10.07
2022-07-30T20:14:22.967Z,10.55
2022-07-30T20:16:53.194Z,11.55
2022-07-30T20:19:23.468Z,15.68
2022-07-30T20:21:57.619Z,13.68
2022-07-30T20:24:40.345Z,11.30
2022-07-30T20:27:36.220Z,10.25
2022-07-30T20:30:01.347Z,10.32
2022-07-30T20:32:31.766Z,9.40
2022-07-30T20:35:02.117Z,11.98
2022-07-30T20:37:32.763Z,12.05
2022-07-30T20:40:16.798Z,12.40
2022-07-30T20:42:47.558Z,13.88
2022-07-30T20:45:18.146Z,10.38
2022-07-30T20:47:56.842Z,12.73
2022-07-30T20:50:28.352Z,11.20
2022-07-30T20:53:01.803Z,10.70
2022-07-30T20:58:16.308Z,12.27
2022-07-30T21:00:49.783Z,11.73
2022-07-30T21:03:21.893Z,13.90
2022-07-30T21:05:52.820Z,12.38
2022-07-30T21:08:25.559Z,14.15
2022-07-30T21:11:00.272Z,13.95
2022-07-30T21:13:30.674Z,13.52
2022-07-30T21:16:03.515Z,13.15
2022-07-30T21:18:34.485Z,15.75
2022-07-30T21:21:05.702Z,14.50
2022-07-30T21:23:36.544Z,13.35
2022-07-30T21:26:13.329Z,17.42
2022-07-30T21:28:43.961Z,14.35
2022-07-30T21:31:14.796Z,29.80
2022-07-30T21:33:45.045Z,19.35
2022-07-30T21:38:46.530Z,13.00
2022-07-30T21:44:10.328Z,15.45
2022-07-30T21:46:40.810Z,14.40
2022-07-30T21:49:12.081Z,16.13
2022-07-30T21:51:42.264Z,16.00
2022-07-30T21:54:17.027Z,15.65
2022-07-30T21:56:59.425Z,15.55
2022-07-30T21:59:29.733Z,15.82
2022-07-30T22:02:00.739Z,15.32
2022-07-30T22:04:31.045Z,15.82
2022-07-30T22:07:02.388Z,14.52
2022-07-30T22:12:12.451Z,13.32
2022-07-30T22:14:43.602Z,13.52
2022-07-30T22:17:23.575Z,14.60
2022-07-30T22:20:08.596Z,14.60
2022-07-30T22:22:41.657Z,12.98
2022-07-30T22:25:13.570Z,15.43
2022-07-30T22:27:56.161Z,14.18
2022-07-30T22:30:29.768Z,16.08
2022-07-30T22:33:15.763Z,12.82
2022-07-30T22:35:49.662Z,13.65
2022-07-30T22:38:21.082Z,13.20
2022-07-30T22:40:52.483Z,11.68
2022-07-30T22:43:33.311Z,13.38
2022-07-30T22:49:01.248Z,10.73
2022-07-30T22:52:02.825Z,13.77
2022-07-30T22:54:22.050Z,13.40
2022-07-30T22:56:53.232Z,12.48
2022-07-30T22:59:29.107Z,12.07
2022-07-30T23:02:17.939Z,13.40
2022-07-30T23:04:48.237Z,12.05
2022-07-30T23:07:19.413Z,11.23
2022-07-30T23:09:51.886Z,14.43
2022-07-30T23:12:22.441Z,12.48
2022-07-30T23:12:34.447Z,13.38
2022-07-30T23:14:56.068Z,11.07
2022-07-30T23:17:26.281Z,12.00
2022-07-30T23:19:56.486Z,10.90
2022-07-30T23:22:26.664Z,11.57
2022-07-30T23:24:56.808Z,10.45
2022-07-30T23:27:27.003Z,10.63
2022-07-30T23:29:59.914Z,15.65
2022-07-30T23:32:30.230Z,11.95
2022-07-30T23:35:00.815Z,10.30
2022-07-30T23:37:37.938Z,14.25
2022-07-30T23:40:20.058Z,15.27
2022-07-30T23:42:51.089Z,12.57
2022-07-30T23:45:24.125Z,12.82
2022-07-30T23:48:01.688Z,10.18
2022-07-30T23:50:33.837Z,11.98
2022-07-30T23:55:36.109Z,10.57
2022-07-30T23:58:06.772Z,10.25
